PWSweather.com
Personal Weather Stations
Station Observations
01979
Ravne Pri CerknemSI 5282

Ravne Pri CerknemSI 5282

Lat: 46.1213916, Lon: 13.952774299999987

Elevation: 2244.094488

Station Type: Techo Line WS2307

www.vremenska.postaja.andre.si/

High Low Average
Temperature 34.0°F1.1°C 28.2°F-2.1°C 30.4°F-0.9°C
Dew Point 31.5°F-0.3°C 24.3°F-4.3°C 28.4°F-2.0°C
Winds 12.3 mph 19.8 kmh Calm Calm 2.0 mph NE3.2 kmh NE
Wind Gusts 20.1 mph32.3 kmh -- 4.0 mph6.4 kmh
Humidity 95% 85% 92%
Pressure 30.24 in1024.0 mb 30.08 in1018.6 mb -
Precipitation 0.20 in5.1 mm - -
Hour Temp Dew Point Humidity Winds Wind Gusts Pressure Precip Precip Rate Daily Precip Total
12:00 AM 34.0°F1.1°C 31.4°F-0.3°C 90% Calm Calm -- 30.08 in1018.6 mb 0.00 in0.0 mm 0.00 in0.0 mm 0.00 in0.0 mm
12:10 AM 33.8°F1.0°C 31.5°F-0.3°C 91% Calm Calm -- 30.08 in1018.6 mb 0.00 in0.0 mm 0.00 in0.0 mm 0.00 in0.0 mm
12:20 AM 33.6°F0.9°C 31.3°F-0.4°C 91% Calm Calm -- 30.08 in1018.6 mb 0.00 in0.0 mm 0.00 in0.0 mm 0.00 in0.0 mm
12:30 AM 33.4°F0.8°C 31.1°F-0.5°C 91% Calm Calm -- 30.08 in1018.6 mb 0.00 in0.0 mm 0.00 in0.0 mm 0.00 in0.0 mm
12:40 AM 33.1°F0.6°C 30.7°F-0.7°C 91% Calm Calm -- 30.08 in1018.6 mb 0.02 in0.5 mm 0.12 in3.0 mm 0.02 in0.5 mm
12:50 AM 32.9°F0.5°C 30.6°F-0.8°C 91% Calm Calm -- 30.08 in1018.6 mb 0.02 in0.5 mm 0.00 in0.0 mm 0.02 in0.5 mm
01:00 AM 32.7°F0.4°C 30.7°F-0.7°C 92% Calm Calm -- 30.08 in1018.6 mb 0.02 in0.5 mm 0.00 in0.0 mm 0.02 in0.5 mm
01:10 AM 32.4°F0.2°C 30.3°F-0.9°C 92% Calm Calm -- 30.09 in1019.0 mb 0.02 in0.5 mm 0.00 in0.0 mm 0.02 in0.5 mm
01:20 AM 32.2°F0.1°C 30.1°F-1.1°C 92% Calm Calm -- 30.08 in1018.6 mb 0.02 in0.5 mm 0.00 in0.0 mm 0.02 in0.5 mm
01:30 AM 31.8°F-0.1°C 29.8°F-1.2°C 92% Calm Calm -- 30.08 in1018.6 mb 0.02 in0.5 mm 0.00 in0.0 mm 0.02 in0.5 mm
01:40 AM 31.8°F-0.1°C 29.8°F-1.2°C 92% Calm Calm -- 30.08 in1018.6 mb 0.00 in0.0 mm 0.00 in0.0 mm 0.02 in0.5 mm
01:50 AM 31.8°F-0.1°C 29.8°F-1.2°C 92% Calm Calm -- 30.08 in1018.6 mb 0.00 in0.0 mm 0.00 in0.0 mm 0.02 in0.5 mm
02:00 AM 31.8°F-0.1°C 29.8°F-1.2°C 92% Calm Calm -- 30.08 in1018.6 mb 0.00 in0.0 mm 0.00 in0.0 mm 0.02 in0.5 mm
02:04 AM 31.8°F-0.1°C 29.8°F-1.2°C 92% Calm Calm -- 30.08 in1018.6 mb 0.00 in0.0 mm 0.00 in0.0 mm 0.02 in0.5 mm
02:10 AM 31.8°F-0.1°C 29.8°F-1.2°C 92% Calm Calm -- 30.08 in1018.6 mb 0.00 in0.0 mm 0.00 in0.0 mm 0.02 in0.5 mm
02:20 AM 31.6°F-0.2°C 29.6°F-1.3°C 92% Calm Calm -- 30.08 in1018.6 mb 0.00 in0.0 mm 0.00 in0.0 mm 0.02 in0.5 mm
02:30 AM 31.6°F-0.2°C 29.6°F-1.3°C 92% Calm Calm -- 30.08 in1018.6 mb 0.00 in0.0 mm 0.00 in0.0 mm 0.02 in0.5 mm
02:40 AM 31.3°F-0.4°C 29.2°F-1.6°C 92% Calm Calm -- 30.08 in1018.6 mb 0.00 in0.0 mm 0.00 in0.0 mm 0.02 in0.5 mm
02:50 AM 31.3°F-0.4°C 29.5°F-1.4°C 93% Calm Calm -- 30.08 in1018.6 mb 0.00 in0.0 mm 0.00 in0.0 mm 0.02 in0.5 mm
03:00 AM 31.3°F-0.4°C 29.5°F-1.4°C 93% Calm Calm -- 30.08 in1018.6 mb 0.00 in0.0 mm 0.00 in0.0 mm 0.02 in0.5 mm
03:02 AM 31.3°F-0.4°C 29.2°F-1.6°C 92% Calm Calm -- 30.08 in1018.6 mb 0.00 in0.0 mm 0.00 in0.0 mm 0.02 in0.5 mm
03:10 AM 31.3°F-0.4°C 29.5°F-1.4°C 93% Calm Calm -- 30.08 in1018.6 mb 0.00 in0.0 mm 0.00 in0.0 mm 0.02 in0.5 mm
03:20 AM 31.1°F-0.5°C 29.3°F-1.5°C 93% Calm Calm -- 30.08 in1018.6 mb 0.00 in0.0 mm 0.00 in0.0 mm 0.02 in0.5 mm
03:30 AM 30.9°F-0.6°C 29.1°F-1.6°C 93% Calm Calm -- 30.08 in1018.6 mb 0.00 in0.0 mm 0.00 in0.0 mm 0.02 in0.5 mm
03:40 AM 30.9°F-0.6°C 29.1°F-1.6°C 93% Calm Calm -- 30.08 in1018.6 mb 0.02 in0.5 mm 0.12 in3.0 mm 0.04 in1.0 mm
03:50 AM 30.9°F-0.6°C 29.1°F-1.6°C 93% Calm Calm -- 30.08 in1018.6 mb 0.02 in0.5 mm 0.00 in0.0 mm 0.04 in1.0 mm
04:00 AM 30.9°F-0.6°C 29.4°F-1.4°C 94% Calm Calm -- 30.08 in1018.6 mb 0.04 in1.0 mm 0.02 in0.5 mm 0.06 in1.5 mm
04:10 AM 30.9°F-0.6°C 29.4°F-1.4°C 94% Calm Calm -- 30.09 in1019.0 mb 0.06 in1.5 mm 0.12 in3.0 mm 0.08 in2.0 mm
04:20 AM 31.1°F-0.5°C 29.6°F-1.3°C 94% 0.5 mph ESE0.8 kmh ESE 1.3 mph2.1 kmh 30.08 in1018.6 mb 0.08 in2.0 mm 0.12 in3.0 mm 0.10 in2.5 mm
04:30 AM 31.3°F-0.4°C 29.8°F-1.2°C 94% Calm Calm -- 30.08 in1018.6 mb 0.08 in2.0 mm 0.00 in0.0 mm 0.10 in2.5 mm
04:40 AM 31.3°F-0.4°C 29.8°F-1.2°C 94% Calm Calm -- 30.09 in1019.0 mb 0.06 in1.5 mm 0.00 in0.0 mm 0.10 in2.5 mm
04:50 AM 31.3°F-0.4°C 29.8°F-1.2°C 94% Calm Calm -- 30.09 in1019.0 mb 0.06 in1.5 mm 0.00 in0.0 mm 0.10 in2.5 mm
05:00 AM 31.3°F-0.4°C 29.8°F-1.2°C 94% Calm Calm -- 30.09 in1019.0 mb 0.04 in1.0 mm 0.00 in0.0 mm 0.10 in2.5 mm
05:10 AM 31.3°F-0.4°C 29.8°F-1.2°C 94% Calm Calm -- 30.09 in1019.0 mb 0.02 in0.5 mm 0.00 in0.0 mm 0.10 in2.5 mm
05:20 AM 31.3°F-0.4°C 29.8°F-1.2°C 94% Calm Calm -- 30.09 in1019.0 mb 0.00 in0.0 mm 0.00 in0.0 mm 0.10 in2.5 mm
05:30 AM 31.3°F-0.4°C 29.8°F-1.2°C 94% Calm Calm -- 30.09 in1019.0 mb 0.00 in0.0 mm 0.00 in0.0 mm 0.10 in2.5 mm
05:40 AM 31.1°F-0.5°C 29.6°F-1.3°C 94% Calm Calm -- 30.09 in1019.0 mb 0.02 in0.5 mm 0.12 in3.0 mm 0.12 in3.0 mm
05:50 AM 31.3°F-0.4°C 29.8°F-1.2°C 94% Calm Calm -- 30.09 in1019.0 mb 0.02 in0.5 mm 0.00 in0.0 mm 0.12 in3.0 mm
06:00 AM 31.6°F-0.2°C 30.1°F-1.1°C 94% Calm Calm -- 30.09 in1019.0 mb 0.02 in0.5 mm 0.00 in0.0 mm 0.12 in3.0 mm
06:10 AM 31.6°F-0.2°C 30.1°F-1.1°C 94% Calm Calm -- 30.10 in1019.3 mb 0.02 in0.5 mm 0.00 in0.0 mm 0.12 in3.0 mm
06:20 AM 31.6°F-0.2°C 30.1°F-1.1°C 94% Calm Calm -- 30.11 in1019.6 mb 0.04 in1.0 mm 0.12 in3.0 mm 0.14 in3.6 mm
06:30 AM 31.6°F-0.2°C 30.1°F-1.1°C 94% Calm Calm -- 30.12 in1020.0 mb 0.04 in1.0 mm 0.00 in0.0 mm 0.14 in3.6 mm
06:40 AM 31.8°F-0.1°C 30.3°F-0.9°C 94% Calm Calm -- 30.12 in1020.0 mb 0.02 in0.5 mm 0.00 in0.0 mm 0.14 in3.6 mm
06:50 AM 31.8°F-0.1°C 30.3°F-0.9°C 94% 3.9 mph ESE6.3 kmh ESE 13.6 mph21.9 kmh 30.13 in1020.3 mb 0.02 in0.5 mm 0.00 in0.0 mm 0.14 in3.6 mm
07:00 AM 31.6°F-0.2°C 30.4°F-0.9°C 95% 1.2 mph ESE1.9 kmh ESE 5.6 mph9.0 kmh 30.13 in1020.3 mb 0.02 in0.5 mm 0.00 in0.0 mm 0.14 in3.6 mm
07:10 AM 31.6°F-0.2°C 30.4°F-0.9°C 95% 0.8 mph ENE1.3 kmh ENE 4.3 mph6.9 kmh 30.14 in1020.7 mb 0.02 in0.5 mm 0.00 in0.0 mm 0.14 in3.6 mm
07:20 AM 31.3°F-0.4°C 30.0°F-1.1°C 95% 6.1 mph ESE9.8 kmh ESE 8.1 mph13.0 kmh 30.14 in1020.7 mb 0.00 in0.0 mm 0.00 in0.0 mm 0.14 in3.6 mm
07:30 AM 31.3°F-0.4°C 30.0°F-1.1°C 95% 3.0 mph ESE4.8 kmh ESE 5.4 mph8.7 kmh 30.14 in1020.7 mb 0.00 in0.0 mm 0.00 in0.0 mm 0.14 in3.6 mm
07:40 AM 31.3°F-0.4°C 30.0°F-1.1°C 95% 3.6 mph E5.8 kmh E 6.0 mph9.7 kmh 30.14 in1020.7 mb 0.00 in0.0 mm 0.00 in0.0 mm 0.14 in3.6 mm
07:50 AM 31.3°F-0.4°C 30.0°F-1.1°C 95% 6.6 mph ESE10.6 kmh ESE 11.0 mph17.7 kmh 30.14 in1020.7 mb 0.00 in0.0 mm 0.00 in0.0 mm 0.14 in3.6 mm
08:00 AM 31.3°F-0.4°C 30.0°F-1.1°C 95% 9.2 mph ESE14.8 kmh ESE 11.0 mph17.7 kmh 30.14 in1020.7 mb 0.00 in0.0 mm 0.00 in0.0 mm 0.14 in3.6 mm
08:10 AM 31.3°F-0.4°C 30.0°F-1.1°C 95% 8.5 mph SE13.7 kmh SE 17.4 mph28.0 kmh 30.15 in1021.0 mb 0.00 in0.0 mm 0.00 in0.0 mm 0.14 in3.6 mm
08:20 AM 31.3°F-0.4°C 30.0°F-1.1°C 95% 6.4 mph E10.3 kmh E 9.8 mph15.8 kmh 30.16 in1021.3 mb 0.00 in0.0 mm 0.00 in0.0 mm 0.14 in3.6 mm
08:30 AM 31.3°F-0.4°C 30.0°F-1.1°C 95% 8.1 mph E13.0 kmh E 11.6 mph18.7 kmh 30.16 in1021.3 mb 0.00 in0.0 mm 0.00 in0.0 mm 0.14 in3.6 mm
08:40 AM 31.1°F-0.5°C 29.8°F-1.2°C 95% 4.1 mph E6.6 kmh E 6.5 mph10.5 kmh 30.17 in1021.7 mb 0.00 in0.0 mm 0.00 in0.0 mm 0.14 in3.6 mm
08:50 AM 31.1°F-0.5°C 29.8°F-1.2°C 95% 1.1 mph ESE1.8 kmh ESE 4.9 mph7.9 kmh 30.17 in1021.7 mb 0.00 in0.0 mm 0.00 in0.0 mm 0.14 in3.6 mm
09:00 AM 30.9°F-0.6°C 29.4°F-1.4°C 94% 3.0 mph E4.8 kmh E 11.0 mph17.7 kmh 30.16 in1021.3 mb 0.02 in0.5 mm 0.02 in0.5 mm 0.16 in4.1 mm
09:10 AM 30.9°F-0.6°C 29.4°F-1.4°C 94% Calm Calm -- 30.17 in1021.7 mb 0.02 in0.5 mm 0.00 in0.0 mm 0.16 in4.1 mm
09:20 AM 30.9°F-0.6°C 29.4°F-1.4°C 94% Calm Calm -- 30.17 in1021.7 mb 0.02 in0.5 mm 0.00 in0.0 mm 0.16 in4.1 mm
09:30 AM 30.9°F-0.6°C 29.4°F-1.4°C 94% Calm Calm -- 30.17 in1021.7 mb 0.02 in0.5 mm 0.00 in0.0 mm 0.16 in4.1 mm
09:40 AM 30.7°F-0.7°C 29.2°F-1.6°C 94% Calm Calm -- 30.17 in1021.7 mb 0.02 in0.5 mm 0.00 in0.0 mm 0.16 in4.1 mm
09:50 AM 30.7°F-0.7°C 29.2°F-1.6°C 94% Calm Calm -- 30.18 in1022.0 mb 0.02 in0.5 mm 0.00 in0.0 mm 0.16 in4.1 mm
10:00 AM 30.6°F-0.8°C 29.0°F-1.7°C 94% Calm Calm -- 30.18 in1022.0 mb 0.00 in0.0 mm 0.00 in0.0 mm 0.16 in4.1 mm
10:10 AM 30.4°F-0.9°C 28.9°F-1.7°C 94% Calm Calm -- 30.19 in1022.4 mb 0.00 in0.0 mm 0.00 in0.0 mm 0.16 in4.1 mm
10:20 AM 30.4°F-0.9°C 28.9°F-1.7°C 94% Calm Calm -- 30.19 in1022.4 mb 0.00 in0.0 mm 0.00 in0.0 mm 0.16 in4.1 mm
10:30 AM 30.2°F-1.0°C 28.7°F-1.8°C 94% Calm Calm -- 30.19 in1022.4 mb 0.00 in0.0 mm 0.00 in0.0 mm 0.16 in4.1 mm
10:40 AM 30.4°F-0.9°C 28.9°F-1.7°C 94% Calm Calm -- 30.20 in1022.7 mb 0.00 in0.0 mm 0.00 in0.0 mm 0.16 in4.1 mm
10:50 AM 30.0°F-1.1°C 28.5°F-1.9°C 94% Calm Calm -- 30.20 in1022.7 mb 0.00 in0.0 mm 0.00 in0.0 mm 0.16 in4.1 mm
11:00 AM 30.4°F-0.9°C 28.9°F-1.7°C 94% Calm Calm -- 30.21 in1023.0 mb 0.02 in0.5 mm 0.02 in0.5 mm 0.18 in4.6 mm
11:10 AM 30.4°F-0.9°C 28.9°F-1.7°C 94% Calm Calm -- 30.21 in1023.0 mb 0.02 in0.5 mm 0.00 in0.0 mm 0.18 in4.6 mm
11:20 AM 30.4°F-0.9°C 28.9°F-1.7°C 94% Calm Calm -- 30.21 in1023.0 mb 0.02 in0.5 mm 0.00 in0.0 mm 0.18 in4.6 mm
11:30 AM 30.4°F-0.9°C 28.9°F-1.7°C 94% Calm Calm -- 30.21 in1023.0 mb 0.02 in0.5 mm 0.00 in0.0 mm 0.18 in4.6 mm
11:40 AM 30.2°F-1.0°C 28.7°F-1.8°C 94% Calm Calm -- 30.22 in1023.4 mb 0.02 in0.5 mm 0.00 in0.0 mm 0.18 in4.6 mm
11:50 AM 30.4°F-0.9°C 28.9°F-1.7°C 94% Calm Calm -- 30.22 in1023.4 mb 0.02 in0.5 mm 0.00 in0.0 mm 0.18 in4.6 mm
12:00 PM 30.4°F-0.9°C 28.9°F-1.7°C 94% Calm Calm -- 30.21 in1023.0 mb 0.02 in0.5 mm 0.00 in0.0 mm 0.20 in5.1 mm
12:10 PM 30.4°F-0.9°C 28.9°F-1.7°C 94% Calm Calm -- 30.21 in1023.0 mb 0.02 in0.5 mm 0.00 in0.0 mm 0.20 in5.1 mm
12:20 PM 30.6°F-0.8°C 29.0°F-1.7°C 94% Calm Calm -- 30.21 in1023.0 mb 0.02 in0.5 mm 0.00 in0.0 mm 0.20 in5.1 mm
12:30 PM 30.6°F-0.8°C 29.0°F-1.7°C 94% Calm Calm -- 30.21 in1023.0 mb 0.02 in0.5 mm 0.00 in0.0 mm 0.20 in5.1 mm
12:40 PM 30.4°F-0.9°C 28.9°F-1.7°C 94% Calm Calm -- 30.21 in1023.0 mb 0.02 in0.5 mm 0.00 in0.0 mm 0.20 in5.1 mm
12:50 PM 30.4°F-0.9°C 28.9°F-1.7°C 94% Calm Calm -- 30.21 in1023.0 mb 0.02 in0.5 mm 0.00 in0.0 mm 0.20 in5.1 mm
01:00 PM 30.4°F-0.9°C 28.9°F-1.7°C 94% Calm Calm -- 30.21 in1023.0 mb 0.00 in0.0 mm 0.00 in0.0 mm 0.20 in5.1 mm
01:10 PM 30.4°F-0.9°C 28.6°F-1.9°C 93% Calm Calm -- 30.21 in1023.0 mb 0.00 in0.0 mm 0.00 in0.0 mm 0.20 in5.1 mm
01:20 PM 30.4°F-0.9°C 28.6°F-1.9°C 93% Calm Calm -- 30.21 in1023.0 mb 0.00 in0.0 mm 0.00 in0.0 mm 0.20 in5.1 mm
01:30 PM 30.4°F-0.9°C 28.6°F-1.9°C 93% Calm Calm -- 30.21 in1023.0 mb 0.00 in0.0 mm 0.00 in0.0 mm 0.20 in5.1 mm
01:40 PM 30.4°F-0.9°C 28.3°F-2.1°C 92% Calm Calm -- 30.20 in1022.7 mb 0.00 in0.0 mm 0.00 in0.0 mm 0.20 in5.1 mm
01:50 PM 30.6°F-0.8°C 28.5°F-1.9°C 92% Calm Calm -- 30.20 in1022.7 mb 0.00 in0.0 mm 0.00 in0.0 mm 0.20 in5.1 mm
02:00 PM 30.2°F-1.0°C 28.2°F-2.1°C 92% Calm Calm -- 30.21 in1023.0 mb 0.00 in0.0 mm 0.00 in0.0 mm 0.20 in5.1 mm
02:10 PM 30.0°F-1.1°C 28.0°F-2.2°C 92% Calm Calm -- 30.20 in1022.7 mb 0.00 in0.0 mm 0.00 in0.0 mm 0.20 in5.1 mm
02:20 PM 30.2°F-1.0°C 28.2°F-2.1°C 92% Calm Calm -- 30.20 in1022.7 mb 0.00 in0.0 mm 0.00 in0.0 mm 0.20 in5.1 mm
02:30 PM 30.2°F-1.0°C 28.2°F-2.1°C 92% Calm Calm -- 30.21 in1023.0 mb 0.00 in0.0 mm 0.00 in0.0 mm 0.20 in5.1 mm
02:40 PM 30.2°F-1.0°C 28.2°F-2.1°C 92% Calm Calm -- 30.21 in1023.0 mb 0.00 in0.0 mm 0.00 in0.0 mm 0.20 in5.1 mm
02:50 PM 30.4°F-0.9°C 28.3°F-2.1°C 92% Calm Calm -- 30.21 in1023.0 mb 0.00 in0.0 mm 0.00 in0.0 mm 0.20 in5.1 mm
03:00 PM 30.2°F-1.0°C 27.9°F-2.3°C 91% Calm Calm -- 30.21 in1023.0 mb 0.00 in0.0 mm 0.00 in0.0 mm 0.20 in5.1 mm
03:10 PM 30.0°F-1.1°C 28.0°F-2.2°C 92% Calm Calm -- 30.21 in1023.0 mb 0.00 in0.0 mm 0.00 in0.0 mm 0.20 in5.1 mm
03:20 PM 30.0°F-1.1°C 28.0°F-2.2°C 92% Calm Calm -- 30.21 in1023.0 mb 0.00 in0.0 mm 0.00 in0.0 mm 0.20 in5.1 mm
03:30 PM 30.0°F-1.1°C 28.0°F-2.2°C 92% Calm Calm -- 30.21 in1023.0 mb 0.00 in0.0 mm 0.00 in0.0 mm 0.20 in5.1 mm
03:40 PM 29.8°F-1.2°C 27.8°F-2.3°C 92% Calm Calm -- 30.21 in1023.0 mb 0.00 in0.0 mm 0.00 in0.0 mm 0.20 in5.1 mm
03:50 PM 29.8°F-1.2°C 27.8°F-2.3°C 92% Calm Calm -- 30.21 in1023.0 mb 0.00 in0.0 mm 0.00 in0.0 mm 0.20 in5.1 mm
04:00 PM 29.7°F-1.3°C 27.6°F-2.4°C 92% Calm Calm -- 30.21 in1023.0 mb 0.00 in0.0 mm 0.00 in0.0 mm 0.20 in5.1 mm
04:10 PM 29.7°F-1.3°C 27.9°F-2.3°C 93% Calm Calm -- 30.21 in1023.0 mb 0.00 in0.0 mm 0.00 in0.0 mm 0.20 in5.1 mm
04:20 PM 29.5°F-1.4°C 27.7°F-2.4°C 93% Calm Calm -- 30.22 in1023.4 mb 0.00 in0.0 mm 0.00 in0.0 mm 0.20 in5.1 mm
04:30 PM 29.5°F-1.4°C 27.7°F-2.4°C 93% Calm Calm -- 30.22 in1023.4 mb 0.00 in0.0 mm 0.00 in0.0 mm 0.20 in5.1 mm
04:40 PM 29.5°F-1.4°C 27.4°F-2.6°C 92% Calm Calm -- 30.22 in1023.4 mb 0.00 in0.0 mm 0.00 in0.0 mm 0.20 in5.1 mm
04:50 PM 29.1°F-1.6°C 27.3°F-2.6°C 93% Calm Calm -- 30.22 in1023.4 mb 0.00 in0.0 mm 0.00 in0.0 mm 0.20 in5.1 mm
05:00 PM 29.1°F-1.6°C 27.3°F-2.6°C 93% Calm Calm -- 30.23 in1023.7 mb 0.00 in0.0 mm 0.00 in0.0 mm 0.20 in5.1 mm
05:10 PM 29.1°F-1.6°C 27.3°F-2.6°C 93% Calm Calm -- 30.23 in1023.7 mb 0.00 in0.0 mm 0.00 in0.0 mm 0.20 in5.1 mm
05:20 PM 29.1°F-1.6°C 27.3°F-2.6°C 93% 2.5 mph SE4.0 kmh SE 7.4 mph11.9 kmh 30.22 in1023.4 mb 0.00 in0.0 mm 0.00 in0.0 mm 0.20 in5.1 mm
05:30 PM 28.9°F-1.7°C 27.2°F-2.7°C 93% 0.5 mph SSE0.8 kmh SSE 5.8 mph9.3 kmh 30.23 in1023.7 mb 0.00 in0.0 mm 0.00 in0.0 mm 0.20 in5.1 mm
05:40 PM 28.9°F-1.7°C 27.2°F-2.7°C 93% 2.2 mph W3.5 kmh W 5.8 mph9.3 kmh 30.23 in1023.7 mb 0.00 in0.0 mm 0.00 in0.0 mm 0.20 in5.1 mm
05:50 PM 29.1°F-1.6°C 27.3°F-2.6°C 93% 5.2 mph E8.4 kmh E 9.2 mph14.8 kmh 30.23 in1023.7 mb 0.00 in0.0 mm 0.00 in0.0 mm 0.20 in5.1 mm
06:00 PM 29.1°F-1.6°C 27.3°F-2.6°C 93% 6.0 mph SE9.7 kmh SE 11.0 mph17.7 kmh 30.23 in1023.7 mb 0.00 in0.0 mm 0.00 in0.0 mm 0.20 in5.1 mm
06:10 PM 29.1°F-1.6°C 27.3°F-2.6°C 93% 10.5 mph E16.9 kmh E 20.1 mph32.3 kmh 30.23 in1023.7 mb 0.00 in0.0 mm 0.00 in0.0 mm 0.20 in5.1 mm
06:20 PM 29.1°F-1.6°C 27.3°F-2.6°C 93% 8.0 mph ENE12.9 kmh ENE 20.1 mph32.3 kmh 30.23 in1023.7 mb 0.00 in0.0 mm 0.00 in0.0 mm 0.20 in5.1 mm
06:30 PM 29.1°F-1.6°C 27.3°F-2.6°C 93% 10.0 mph E16.1 kmh E 15.4 mph24.8 kmh 30.23 in1023.7 mb 0.00 in0.0 mm 0.00 in0.0 mm 0.20 in5.1 mm
06:40 PM 29.1°F-1.6°C 27.1°F-2.7°C 92% 9.7 mph E15.6 kmh E 16.1 mph25.9 kmh 30.23 in1023.7 mb 0.00 in0.0 mm 0.00 in0.0 mm 0.20 in5.1 mm
06:50 PM 29.1°F-1.6°C 27.1°F-2.7°C 92% 5.0 mph E8.0 kmh E 9.2 mph14.8 kmh 30.23 in1023.7 mb 0.00 in0.0 mm 0.00 in0.0 mm 0.20 in5.1 mm
07:00 PM 29.1°F-1.6°C 26.8°F-2.9°C 91% 9.4 mph E15.1 kmh E 17.2 mph27.7 kmh 30.23 in1023.7 mb 0.00 in0.0 mm 0.00 in0.0 mm 0.20 in5.1 mm
07:10 PM 29.3°F-1.5°C 26.7°F-2.9°C 90% 6.2 mph E10.0 kmh E 10.1 mph16.3 kmh 30.23 in1023.7 mb 0.00 in0.0 mm 0.00 in0.0 mm 0.20 in5.1 mm
07:20 PM 29.1°F-1.6°C 26.6°F-3.0°C 90% 4.4 mph ENE7.1 kmh ENE 11.6 mph18.7 kmh 30.23 in1023.7 mb 0.00 in0.0 mm 0.00 in0.0 mm 0.20 in5.1 mm
07:30 PM 29.1°F-1.6°C 26.6°F-3.0°C 90% 4.0 mph ENE6.4 kmh ENE 8.3 mph13.4 kmh 30.23 in1023.7 mb 0.00 in0.0 mm 0.00 in0.0 mm 0.20 in5.1 mm
07:40 PM 29.1°F-1.6°C 26.6°F-3.0°C 90% 3.0 mph N4.8 kmh N 6.3 mph10.1 kmh 30.23 in1023.7 mb 0.00 in0.0 mm 0.00 in0.0 mm 0.20 in5.1 mm
07:50 PM 29.1°F-1.6°C 26.6°F-3.0°C 90% 1.4 mph NE2.3 kmh NE 3.1 mph5.0 kmh 30.23 in1023.7 mb 0.00 in0.0 mm 0.00 in0.0 mm 0.20 in5.1 mm
08:00 PM 28.9°F-1.7°C 26.4°F-3.1°C 90% 5.2 mph E8.4 kmh E 11.0 mph17.7 kmh 30.24 in1024.0 mb 0.00 in0.0 mm 0.00 in0.0 mm 0.20 in5.1 mm
08:10 PM 28.9°F-1.7°C 26.6°F-3.0°C 91% 5.5 mph E8.9 kmh E 10.1 mph16.3 kmh 30.24 in1024.0 mb 0.00 in0.0 mm 0.00 in0.0 mm 0.20 in5.1 mm
08:20 PM 28.8°F-1.8°C 26.5°F-3.1°C 91% 2.0 mph NE3.2 kmh NE 5.4 mph8.7 kmh 30.24 in1024.0 mb 0.00 in0.0 mm 0.00 in0.0 mm 0.20 in5.1 mm
08:30 PM 28.8°F-1.8°C 26.5°F-3.1°C 91% 3.8 mph E6.1 kmh E 9.6 mph15.4 kmh 30.23 in1023.7 mb 0.00 in0.0 mm 0.00 in0.0 mm 0.20 in5.1 mm
08:40 PM 28.8°F-1.8°C 26.5°F-3.1°C 91% 10.6 mph ENE17.1 kmh ENE 13.4 mph21.6 kmh 30.23 in1023.7 mb 0.00 in0.0 mm 0.00 in0.0 mm 0.20 in5.1 mm
08:50 PM 28.8°F-1.8°C 26.2°F-3.2°C 90% 7.7 mph E12.4 kmh E 12.5 mph20.1 kmh 30.24 in1024.0 mb 0.00 in0.0 mm 0.00 in0.0 mm 0.20 in5.1 mm
09:00 PM 28.9°F-1.7°C 26.1°F-3.3°C 89% 7.2 mph ESE11.6 kmh ESE 17.4 mph28.0 kmh 30.24 in1024.0 mb 0.00 in0.0 mm 0.00 in0.0 mm 0.20 in5.1 mm
09:10 PM 28.9°F-1.7°C 25.8°F-3.4°C 88% 9.3 mph ESE15.0 kmh ESE 17.4 mph28.0 kmh 30.23 in1023.7 mb 0.00 in0.0 mm 0.00 in0.0 mm 0.20 in5.1 mm
09:20 PM 28.9°F-1.7°C 25.6°F-3.6°C 87% 5.0 mph ENE8.0 kmh ENE 12.3 mph19.8 kmh 30.23 in1023.7 mb 0.00 in0.0 mm 0.00 in0.0 mm 0.20 in5.1 mm
09:30 PM 28.9°F-1.7°C 25.6°F-3.6°C 87% 7.0 mph E11.3 kmh E 13.0 mph20.9 kmh 30.23 in1023.7 mb 0.00 in0.0 mm 0.00 in0.0 mm 0.20 in5.1 mm
09:40 PM 28.9°F-1.7°C 25.6°F-3.6°C 87% 5.8 mph E9.3 kmh E 12.5 mph20.1 kmh 30.23 in1023.7 mb 0.00 in0.0 mm 0.00 in0.0 mm 0.20 in5.1 mm
09:50 PM 28.9°F-1.7°C 25.3°F-3.7°C 86% 10.8 mph E17.4 kmh E 13.6 mph21.9 kmh 30.23 in1023.7 mb 0.00 in0.0 mm 0.00 in0.0 mm 0.20 in5.1 mm
10:00 PM 28.9°F-1.7°C 25.3°F-3.7°C 86% 12.3 mph ESE19.8 kmh ESE 16.3 mph26.2 kmh 30.23 in1023.7 mb 0.00 in0.0 mm 0.00 in0.0 mm 0.20 in5.1 mm
10:10 PM 28.9°F-1.7°C 25.3°F-3.7°C 86% 9.6 mph ENE15.4 kmh ENE 13.2 mph21.2 kmh 30.23 in1023.7 mb 0.00 in0.0 mm 0.00 in0.0 mm 0.20 in5.1 mm
10:20 PM 28.9°F-1.7°C 25.3°F-3.7°C 86% 4.0 mph E6.4 kmh E 8.1 mph13.0 kmh 30.22 in1023.4 mb 0.00 in0.0 mm 0.00 in0.0 mm 0.20 in5.1 mm
10:30 PM 28.9°F-1.7°C 25.3°F-3.7°C 86% 3.8 mph ESE6.1 kmh ESE 8.1 mph13.0 kmh 30.22 in1023.4 mb 0.00 in0.0 mm 0.00 in0.0 mm 0.20 in5.1 mm
10:40 PM 28.9°F-1.7°C 25.0°F-3.9°C 85% 9.1 mph ENE14.6 kmh ENE 15.2 mph24.5 kmh 30.22 in1023.4 mb 0.00 in0.0 mm 0.00 in0.0 mm 0.20 in5.1 mm
10:50 PM 28.8°F-1.8°C 24.8°F-4.0°C 85% 2.1 mph ENE3.4 kmh ENE 9.8 mph15.8 kmh 30.23 in1023.7 mb 0.00 in0.0 mm 0.00 in0.0 mm 0.20 in5.1 mm
11:00 PM 28.6°F-1.9°C 24.9°F-3.9°C 86% 1.9 mph ENE3.1 kmh ENE 8.7 mph14.0 kmh 30.22 in1023.4 mb 0.00 in0.0 mm 0.00 in0.0 mm 0.20 in5.1 mm
11:10 PM 28.6°F-1.9°C 24.9°F-3.9°C 86% 2.2 mph E3.5 kmh E 10.1 mph16.3 kmh 30.22 in1023.4 mb 0.00 in0.0 mm 0.00 in0.0 mm 0.20 in5.1 mm
11:20 PM 28.6°F-1.9°C 24.9°F-3.9°C 86% 4.0 mph E6.4 kmh E 10.1 mph16.3 kmh 30.22 in1023.4 mb 0.00 in0.0 mm 0.00 in0.0 mm 0.20 in5.1 mm
11:30 PM 28.6°F-1.9°C 24.6°F-4.1°C 85% 2.1 mph E3.4 kmh E 5.4 mph8.7 kmh 30.22 in1023.4 mb 0.00 in0.0 mm 0.00 in0.0 mm 0.20 in5.1 mm
11:40 PM 28.6°F-1.9°C 24.6°F-4.1°C 85% Calm Calm -- 30.22 in1023.4 mb 0.00 in0.0 mm 0.00 in0.0 mm 0.20 in5.1 mm
11:50 PM 28.2°F-2.1°C 24.3°F-4.3°C 85% Calm Calm -- 30.22 in1023.4 mb 0.00 in0.0 mm 0.00 in0.0 mm 0.20 in5.1 mm